Time;durP1;ratioP1;P1;durP2;ratioP2;P2;SDS_P1;SDS_P2;PMS_P1;PMS_P2;Temp;Humidity;BMP_temperature;BMP_pressure;BME280_temperature;BME280_humidity;BME280_pressure;Samples;Min_cycle;Max_cycle;Signal;HPM_P1;HPM_P2
2023/08/03 00:00:37;;;;;;;11.80;2.50;;;17.70;99.90;;;;;;5052189;28;20411;-75
2023/08/03 00:03:02;;;;;;;13.35;1.88;;;17.70;99.90;;;;;;5052028;28;20033;-75
2023/08/03 00:05:28;;;;;;;10.10;2.00;;;17.70;99.90;;;;;;5047019;28;20029;-76
2023/08/03 00:07:54;;;;;;;13.55;2.10;;;17.70;99.90;;;;;;5045596;28;20017;-75
2023/08/03 00:10:21;;;;;;;15.20;2.33;;;17.70;99.90;;;;;;5051932;28;20021;-75
2023/08/03 00:12:47;;;;;;;13.00;2.30;;;17.70;99.90;;;;;;5051780;28;20032;-75
2023/08/03 00:15:15;;;;;;;13.70;2.40;;;17.70;99.90;;;;;;5035740;28;20021;-75
2023/08/03 00:17:41;;;;;;;16.00;2.35;;;17.60;99.90;;;;;;5038942;28;20025;-75
2023/08/03 00:20:08;;;;;;;8.48;2.45;;;17.70;99.90;;;;;;5051601;28;20021;-75
2023/08/03 00:22:35;;;;;;;12.43;2.60;;;17.70;99.90;;;;;;5051647;28;20029;-75
2023/08/03 00:25:01;;;;;;;11.00;2.10;;;17.70;99.90;;;;;;5051707;28;20101;-75
2023/08/03 00:27:28;;;;;;;12.30;2.35;;;17.70;99.90;;;;;;5051607;28;20117;-75
2023/08/03 00:29:54;;;;;;;13.68;2.28;;;17.70;99.90;;;;;;5051363;28;20021;-75
2023/08/03 00:32:20;;;;;;;16.10;2.80;;;17.70;99.90;;;;;;5051118;28;20138;-75
2023/08/03 00:34:46;;;;;;;15.05;3.20;;;17.70;99.90;;;;;;5046890;28;20043;-76
2023/08/03 00:37:12;;;;;;;9.15;3.05;;;17.70;99.90;;;;;;5050300;28;20404;-75
2023/08/03 00:39:37;;;;;;;15.13;3.13;;;17.70;99.90;;;;;;5051220;28;20021;-75
2023/08/03 00:42:04;;;;;;;16.45;3.50;;;17.70;99.90;;;;;;5049979;28;20039;-76
2023/08/03 00:44:30;;;;;;;19.45;3.90;;;17.70;99.90;;;;;;5036460;28;20101;-75
2023/08/03 00:46:56;;;;;;;13.50;3.50;;;17.60;99.90;;;;;;5051563;28;20100;-75
2023/08/03 00:49:27;;;;;;;17.10;3.63;;;17.60;99.90;;;;;;5051134;28;20020;-76
2023/08/03 00:51:56;;;;;;;22.20;4.13;;;17.60;99.90;;;;;;5043979;28;20021;-75
2023/08/03 00:54:22;;;;;;;14.60;3.60;;;17.60;99.90;;;;;;5050644;28;20463;-75
2023/08/03 00:56:48;;;;;;;19.02;4.47;;;17.60;99.90;;;;;;5051434;28;20150;-75
2023/08/03 00:59:14;;;;;;;18.02;4.03;;;17.60;99.90;;;;;;5049532;28;20403;-75
2023/08/03 01:01:41;;;;;;;16.40;3.95;;;17.60;99.90;;;;;;5051284;28;20017;-76
2023/08/03 01:04:06;;;;;;;15.15;4.07;;;17.60;99.90;;;;;;5050974;28;20021;-75
2023/08/03 01:06:32;;;;;;;15.82;4.28;;;17.60;99.90;;;;;;5050913;28;20017;-75
2023/08/03 01:08:59;;;;;;;17.17;4.38;;;17.60;99.90;;;;;;5050734;28;20052;-75
2023/08/03 01:11:26;;;;;;;15.48;3.80;;;17.60;99.90;;;;;;5051109;28;20056;-75
2023/08/03 01:13:52;;;;;;;14.93;3.80;;;17.60;99.90;;;;;;5044481;28;20026;-75
2023/08/03 01:16:18;;;;;;;15.00;4.13;;;17.60;99.90;;;;;;5046540;28;20021;-75
2023/08/03 01:18:44;;;;;;;13.70;4.03;;;17.60;99.90;;;;;;5038297;28;20029;-75
2023/08/03 01:21:12;;;;;;;17.48;4.00;;;17.60;99.90;;;;;;5050714;28;20381;-75
2023/08/03 01:23:37;;;;;;;11.25;3.50;;;17.60;99.90;;;;;;5051633;28;20090;-75
2023/08/03 01:26:03;;;;;;;15.57;3.75;;;17.60;99.90;;;;;;5063840;28;20032;-75
2023/08/03 01:28:29;;;;;;;16.83;3.80;;;17.60;99.90;;;;;;5059338;28;20001;-75
2023/08/03 01:30:55;;;;;;;10.77;3.33;;;17.60;99.90;;;;;;5052738;28;20017;-75
2023/08/03 01:33:20;;;;;;;13.93;3.38;;;17.60;99.90;;;;;;5051013;28;20079;-77
2023/08/03 01:35:46;;;;;;;11.32;3.70;;;17.60;99.90;;;;;;5050793;28;20017;-76
2023/08/03 01:38:13;;;;;;;12.75;3.63;;;17.60;99.90;;;;;;5047007;28;20013;-75
2023/08/03 01:40:41;;;;;;;16.90;3.58;;;17.60;99.90;;;;;;5050498;28;20025;-76
2023/08/03 01:43:06;;;;;;;12.98;3.22;;;17.60;99.90;;;;;;5048601;28;20116;-76
2023/08/03 01:45:32;;;;;;;12.88;3.00;;;17.60;99.90;;;;;;5050491;28;20088;-76
2023/08/03 01:47:58;;;;;;;9.40;3.45;;;17.60;99.90;;;;;;5050277;28;20495;-76
2023/08/03 01:50:23;;;;;;;11.77;3.50;;;17.60;99.90;;;;;;5050185;28;20017;-76
2023/08/03 01:52:49;;;;;;;11.73;3.33;;;17.60;99.90;;;;;;5050402;28;20033;-76
2023/08/03 01:55:15;;;;;;;10.15;3.53;;;17.50;99.90;;;;;;5050036;28;20017;-76
2023/08/03 01:57:40;;;;;;;10.93;3.20;;;17.50;99.90;;;;;;5050551;28;20025;-76
2023/08/03 02:00:06;;;;;;;10.15;3.28;;;17.50;99.90;;;;;;5049860;28;20057;-76
2023/08/03 02:02:32;;;;;;;10.15;2.85;;;17.50;99.90;;;;;;5047296;28;20112;-76
2023/08/03 02:04:58;;;;;;;13.07;3.20;;;17.50;99.90;;;;;;5046983;28;20430;-76
2023/08/03 02:07:44;;;;;;;5.93;2.75;;;17.50;99.90;;;;;;5050085;28;20370;-76
2023/08/03 02:10:10;;;;;;;8.30;2.75;;;17.50;99.90;;;;;;5049083;28;20053;-76
2023/08/03 02:12:36;;;;;;;7.30;2.20;;;17.50;99.90;;;;;;5050272;28;20024;-76
2023/08/03 02:15:06;;;;;;;8.43;2.47;;;17.40;99.90;;;;;;5048328;28;20021;-75
2023/08/03 02:17:33;;;;;;;10.13;2.88;;;17.40;99.90;;;;;;5048729;28;20083;-75
2023/08/03 02:19:59;;;;;;;10.27;2.80;;;17.40;99.90;;;;;;5051976;28;20021;-75
2023/08/03 02:22:24;;;;;;;8.90;2.55;;;17.40;99.90;;;;;;5049947;28;20033;-75
2023/08/03 02:24:50;;;;;;;7.38;2.53;;;17.30;99.90;;;;;;5045745;28;20463;-75
2023/08/03 02:27:16;;;;;;;7.57;2.45;;;17.30;99.90;;;;;;5053763;28;20096;-75
2023/08/03 02:29:41;;;;;;;8.48;2.20;;;17.30;99.90;;;;;;5053909;28;20025;-76
2023/08/03 02:32:07;;;;;;;8.10;2.40;;;17.30;99.90;;;;;;5053453;28;20111;-76
2023/08/03 02:34:33;;;;;;;10.25;2.30;;;17.30;99.90;;;;;;5042520;28;20025;-75
2023/08/03 02:36:58;;;;;;;7.22;2.17;;;17.30;99.90;;;;;;5053467;28;20021;-76
2023/08/03 02:39:24;;;;;;;8.05;2.33;;;17.30;99.90;;;;;;5053660;28;20096;-76
2023/08/03 02:41:50;;;;;;;7.00;2.40;;;17.30;99.90;;;;;;5053142;28;20111;-75
2023/08/03 02:44:15;;;;;;;4.20;1.95;;;17.30;99.90;;;;;;5053574;28;20028;-75
2023/08/03 02:46:41;;;;;;;6.95;2.47;;;17.30;99.90;;;;;;5053304;28;20472;-76
2023/08/03 02:49:06;;;;;;;5.43;1.90;;;17.30;99.90;;;;;;5053535;28;20021;-75
2023/08/03 02:51:32;;;;;;;8.13;2.20;;;17.30;99.90;;;;;;5052159;28;20021;-76
2023/08/03 02:53:57;;;;;;;6.38;2.22;;;17.20;99.90;;;;;;5053445;28;20460;-75
2023/08/03 02:56:23;;;;;;;9.77;2.58;;;17.30;99.90;;;;;;5053170;28;20052;-74
2023/08/03 02:58:49;;;;;;;9.00;2.20;;;17.30;99.90;;;;;;5053263;28;20478;-75
2023/08/03 03:01:14;;;;;;;7.68;2.80;;;17.30;99.90;;;;;;5051933;28;20518;-75
2023/08/03 03:03:40;;;;;;;16.05;3.42;;;17.30;99.90;;;;;;5053177;28;20048;-75
2023/08/03 03:06:06;;;;;;;11.00;3.65;;;17.30;99.90;;;;;;5051223;28;20087;-75
2023/08/03 03:08:32;;;;;;;15.77;3.58;;;17.30;99.90;;;;;;5051191;28;20021;-75
2023/08/03 03:10:57;;;;;;;19.25;3.17;;;17.30;99.90;;;;;;5053277;28;20017;-75
2023/08/03 03:13:23;;;;;;;12.57;3.00;;;17.30;99.90;;;;;;5053022;28;20021;-75
2023/08/03 03:15:49;;;;;;;17.42;2.88;;;17.30;99.90;;;;;;5053061;28;20053;-75
2023/08/03 03:18:14;;;;;;;14.55;2.90;;;17.30;99.90;;;;;;5052622;28;20032;-75
2023/08/03 03:20:40;;;;;;;10.63;2.65;;;17.20;99.90;;;;;;5053043;28;20028;-75
2023/08/03 03:23:06;;;;;;;15.18;2.25;;;17.20;99.90;;;;;;5052664;28;20100;-75
2023/08/03 03:25:31;;;;;;;13.60;1.98;;;17.20;99.90;;;;;;5052370;28;20025;-76
2023/08/03 03:28:04;;;;;;;10.95;2.00;;;17.20;99.90;;;;;;5052599;28;20032;-76
2023/08/03 03:30:32;;;;;;;14.32;1.98;;;17.20;99.90;;;;;;5039787;28;20032;-76
2023/08/03 03:32:58;;;;;;;15.18;2.20;;;17.20;99.90;;;;;;5052677;28;20064;-76
2023/08/03 03:35:24;;;;;;;9.38;2.15;;;17.20;99.90;;;;;;5044974;28;20043;-76
2023/08/03 03:37:49;;;;;;;13.38;2.40;;;17.20;99.90;;;;;;5046677;28;20025;-75
2023/08/03 03:40:15;;;;;;;15.50;2.00;;;17.20;99.90;;;;;;5052697;28;20025;-75
2023/08/03 03:42:40;;;;;;;13.60;2.20;;;17.20;99.90;;;;;;5051006;28;20021;-76
2023/08/03 03:45:07;;;;;;;11.15;1.92;;;17.20;99.90;;;;;;5052893;28;20096;-76
2023/08/03 03:47:33;;;;;;;10.32;2.13;;;17.20;99.90;;;;;;5049413;28;20074;-76
2023/08/03 03:49:59;;;;;;;11.73;2.20;;;17.20;99.90;;;;;;5043670;28;20112;-76
2023/08/03 03:52:25;;;;;;;15.20;2.20;;;17.20;99.90;;;;;;5042132;28;20063;-76
2023/08/03 03:54:51;;;;;;;12.07;2.00;;;17.20;99.90;;;;;;5052325;28;20656;-76
2023/08/03 03:57:16;;;;;;;16.05;2.40;;;17.20;99.90;;;;;;5043904;28;20450;-76
2023/08/03 03:59:42;;;;;;;15.82;2.67;;;17.20;99.90;;;;;;5052061;28;20041;-76
2023/08/03 04:02:08;;;;;;;19.92;3.67;;;17.20;99.90;;;;;;5051924;28;20029;-76
2023/08/03 04:04:33;;;;;;;18.73;3.85;;;17.20;99.90;;;;;;5052329;28;20112;-76
2023/08/03 04:06:59;;;;;;;31.45;4.85;;;17.20;99.90;;;;;;5050250;28;20017;-76
2023/08/03 04:09:24;;;;;;;27.23;4.88;;;17.20;99.90;;;;;;5052380;28;20033;-76
2023/08/03 04:11:50;;;;;;;31.17;4.65;;;17.20;99.90;;;;;;5051778;28;20392;-75
2023/08/03 04:14:16;;;;;;;26.13;4.68;;;17.20;99.90;;;;;;5051909;28;20029;-75
2023/08/03 04:16:41;;;;;;;24.75;4.68;;;17.20;99.90;;;;;;5046360;28;20025;-75
2023/08/03 04:19:07;;;;;;;31.63;4.43;;;17.20;99.90;;;;;;5043699;28;20028;-75
2023/08/03 04:21:32;;;;;;;25.23;4.82;;;17.20;99.90;;;;;;5062387;28;20017;-75
2023/08/03 04:23:58;;;;;;;26.63;4.78;;;17.10;99.90;;;;;;5062089;28;20033;-76
2023/08/03 04:26:24;;;;;;;30.58;4.85;;;17.10;99.90;;;;;;5054548;28;20021;-76
2023/08/03 04:28:49;;;;;;;31.13;4.50;;;17.10;99.90;;;;;;5048401;28;20017;-76
2023/08/03 04:31:15;;;;;;;29.30;4.20;;;17.10;99.90;;;;;;5052020;28;20104;-76
2023/08/03 04:33:40;;;;;;;23.38;3.95;;;17.10;99.90;;;;;;5051421;28;20025;-76
2023/08/03 04:36:06;;;;;;;27.50;4.43;;;17.10;99.90;;;;;;5051310;28;20096;-76
2023/08/03 04:38:32;;;;;;;19.77;3.38;;;17.10;99.90;;;;;;5051144;28;20021;-76
2023/08/03 04:41:00;;;;;;;18.15;3.45;;;17.10;99.90;;;;;;5050670;28;20013;-75
2023/08/03 04:43:27;;;;;;;18.13;3.72;;;17.00;99.90;;;;;;5051257;28;20075;-76
2023/08/03 04:45:52;;;;;;;12.65;3.03;;;17.00;99.90;;;;;;5051212;28;20021;-76
2023/08/03 04:48:18;;;;;;;21.10;3.17;;;17.00;99.90;;;;;;5050992;28;20024;-75
2023/08/03 04:50:44;;;;;;;16.65;3.58;;;17.00;99.90;;;;;;5050279;28;20464;-76
2023/08/03 04:53:09;;;;;;;25.42;4.30;;;16.90;99.90;;;;;;5051003;28;20021;-76
2023/08/03 04:55:35;;;;;;;25.70;3.70;;;16.90;99.90;;;;;;5050980;28;20025;-75
2023/08/03 04:58:01;;;;;;;24.00;3.58;;;16.90;99.90;;;;;;5043289;28;20056;-75
2023/08/03 05:00:27;;;;;;;22.85;3.67;;;16.90;99.90;;;;;;5049649;28;20517;-75
2023/08/03 05:02:52;;;;;;;21.33;3.58;;;16.90;99.90;;;;;;5050605;28;20057;-76
2023/08/03 05:05:18;;;;;;;18.17;3.50;;;16.90;99.90;;;;;;5050787;28;20078;-76
2023/08/03 05:07:43;;;;;;;21.67;4.15;;;16.90;99.90;;;;;;5050778;28;20086;-75
2023/08/03 05:10:09;;;;;;;25.85;3.85;;;16.90;99.90;;;;;;5047946;28;20017;-75
2023/08/03 05:12:35;;;;;;;24.30;3.75;;;16.90;99.90;;;;;;5050904;28;20040;-76
2023/08/03 05:15:00;;;;;;;17.30;3.42;;;16.90;99.90;;;;;;5050298;28;20063;-76
2023/08/03 05:17:26;;;;;;;26.67;3.38;;;17.00;99.90;;;;;;5050839;28;20102;-76
2023/08/03 05:19:52;;;;;;;22.65;3.20;;;17.00;99.90;;;;;;5050606;28;20017;-75
2023/08/03 05:22:17;;;;;;;14.30;2.90;;;16.90;99.90;;;;;;5046115;28;20028;-75
2023/08/03 05:24:43;;;;;;;20.20;2.72;;;16.90;99.90;;;;;;5043674;28;20021;-75
2023/08/03 05:27:12;;;;;;;23.40;3.08;;;16.90;99.90;;;;;;5038599;28;20027;-76
2023/08/03 05:29:37;;;;;;;20.02;3.08;;;17.00;99.90;;;;;;5050417;28;20025;-76
2023/08/03 05:32:03;;;;;;;20.73;3.20;;;16.90;99.90;;;;;;5045589;28;20487;-76
2023/08/03 05:34:30;;;;;;;25.20;3.80;;;17.00;99.90;;;;;;5050553;28;20044;-76
2023/08/03 05:36:56;;;;;;;19.30;3.08;;;17.00;99.90;;;;;;5051759;28;20150;-76
2023/08/03 05:39:26;;;;;;;21.25;3.05;;;17.00;99.90;;;;;;5050460;28;20039;-76
2023/08/03 05:41:51;;;;;;;23.52;3.30;;;17.00;99.90;;;;;;5046323;28;20021;-75
2023/08/03 05:44:17;;;;;;;25.52;3.47;;;17.00;99.90;;;;;;5049946;28;20049;-76
2023/08/03 05:46:44;;;;;;;26.67;3.90;;;17.00;99.90;;;;;;5050703;28;20047;-76
2023/08/03 05:49:10;;;;;;;25.58;4.10;;;17.00;99.90;;;;;;5050215;28;20051;-76
2023/08/03 05:51:35;;;;;;;33.05;4.45;;;17.10;99.90;;;;;;5050410;28;20056;-76
2023/08/03 05:54:01;;;;;;;33.88;4.68;;;17.10;99.90;;;;;;5050520;28;20021;-76
2023/08/03 05:56:27;;;;;;;33.88;4.57;;;17.10;99.90;;;;;;5039903;28;20029;-75
2023/08/03 05:58:53;;;;;;;36.28;5.18;;;17.20;99.90;;;;;;5044941;28;20170;-76
2023/08/03 06:01:22;;;;;;;32.78;5.05;;;17.20;99.90;;;;;;5042924;28;20079;-76
2023/08/03 06:03:51;;;;;;;25.88;4.47;;;17.20;99.90;;;;;;5052325;28;20024;-76
2023/08/03 06:06:21;;;;;;;27.42;4.30;;;17.20;99.90;;;;;;5054150;28;20029;-76
2023/08/03 06:08:51;;;;;;;31.00;5.28;;;17.30;99.90;;;;;;5054317;28;20025;-76
2023/08/03 06:11:20;;;;;;;30.88;4.90;;;17.30;99.90;;;;;;5054757;28;20430;-76
2023/08/03 06:13:46;;;;;;;33.85;4.65;;;17.30;99.90;;;;;;5043412;28;20444;-76
2023/08/03 06:16:13;;;;;;;27.70;4.47;;;17.30;99.90;;;;;;5054121;28;20395;-76
2023/08/03 06:18:52;;;;;;;33.92;5.15;;;17.30;99.90;;;;;;5052748;28;20048;-76
2023/08/03 06:21:19;;;;;;;31.15;5.63;;;17.40;99.90;;;;;;5054871;28;20100;-76
2023/08/03 06:23:49;;;;;;;35.42;5.75;;;17.40;99.90;;;;;;5053765;28;20049;-76
2023/08/03 06:26:17;;;;;;;32.67;5.90;;;17.40;99.90;;;;;;5053709;28;20095;-76
2023/08/03 06:28:44;;;;;;;31.40;5.82;;;17.50;99.90;;;;;;5053746;28;20017;-76
2023/08/03 06:31:19;;;;;;;26.80;5.10;;;17.50;99.90;;;;;;5053771;28;20021;-76
2023/08/03 06:33:46;;;;;;;30.45;5.60;;;17.50;99.90;;;;;;5042246;28;20476;-75
2023/08/03 06:36:19;;;;;;;23.02;4.93;;;17.60;99.90;;;;;;5046190;28;20025;-76
2023/08/03 06:38:46;;;;;;;24.33;4.28;;;17.60;99.90;;;;;;5053919;28;20032;-75
2023/08/03 06:41:12;;;;;;;21.58;3.70;;;17.60;99.90;;;;;;5047751;28;20032;-75
2023/08/03 06:43:37;;;;;;;18.60;4.25;;;17.60;99.90;;;;;;5053885;28;20387;-75
2023/08/03 06:46:04;;;;;;;25.00;4.25;;;17.60;99.90;;;;;;5048858;28;20317;-75
2023/08/03 06:48:31;;;;;;;22.27;3.92;;;17.70;99.90;;;;;;5053412;28;20039;-75
2023/08/03 06:50:57;;;;;;;24.63;4.38;;;17.70;99.90;;;;;;5050669;28;20476;-75
2023/08/03 06:53:22;;;;;;;19.88;3.85;;;17.70;99.90;;;;;;5053559;28;20032;-75
2023/08/03 06:55:48;;;;;;;20.13;3.88;;;17.70;99.90;;;;;;5052674;28;20013;-76
2023/08/03 06:58:17;;;;;;;20.75;3.83;;;17.70;99.90;;;;;;5053195;28;20049;-75
2023/08/03 07:00:44;;;;;;;19.20;3.60;;;17.80;99.90;;;;;;5046127;28;20025;-75
2023/08/03 07:03:10;;;;;;;18.67;3.42;;;17.80;99.90;;;;;;5047927;28;20026;-75
2023/08/03 07:05:36;;;;;;;24.83;3.88;;;17.80;99.90;;;;;;5052330;28;20102;-75
2023/08/03 07:08:02;;;;;;;16.77;3.67;;;17.80;99.90;;;;;;5052886;28;20104;-75
2023/08/03 07:10:28;;;;;;;22.45;3.42;;;17.80;99.90;;;;;;5053260;28;20021;-75
2023/08/03 07:12:53;;;;;;;17.85;3.00;;;17.90;99.90;;;;;;5051906;28;20029;-75
2023/08/03 07:15:19;;;;;;;19.63;2.83;;;17.90;99.90;;;;;;5054312;28;20092;-75
2023/08/03 07:17:45;;;;;;;17.77;3.15;;;17.90;99.90;;;;;;5064832;28;20029;-75
2023/08/03 07:20:11;;;;;;;15.90;2.80;;;18.00;99.90;;;;;;5056104;28;20032;-75
2023/08/03 07:22:37;;;;;;;13.20;2.33;;;18.00;99.90;;;;;;5054101;28;20033;-75
2023/08/03 07:25:04;;;;;;;10.75;2.47;;;18.00;99.90;;;;;;5053247;28;20495;-75
2023/08/03 07:27:30;;;;;;;13.02;2.65;;;18.00;99.90;;;;;;5037247;28;20083;-75
2023/08/03 07:29:56;;;;;;;13.27;2.60;;;18.10;99.90;;;;;;5049384;28;20013;-75
2023/08/03 07:32:22;;;;;;;15.65;2.95;;;18.10;99.90;;;;;;5052786;28;20024;-75
2023/08/03 07:34:48;;;;;;;12.25;3.00;;;18.10;99.90;;;;;;5052769;28;20017;-75
2023/08/03 07:37:13;;;;;;;15.82;3.08;;;18.10;99.90;;;;;;5047071;28;20032;-76
2023/08/03 07:39:39;;;;;;;12.00;2.60;;;18.10;99.90;;;;;;5052521;28;20096;-75
2023/08/03 07:42:05;;;;;;;11.77;2.78;;;18.20;99.90;;;;;;5052462;28;20029;-75
2023/08/03 07:44:31;;;;;;;13.60;2.72;;;18.20;99.90;;;;;;5049638;28;20476;-75
2023/08/03 07:46:56;;;;;;;14.02;2.88;;;18.20;99.90;;;;;;5052411;28;20032;-75
2023/08/03 07:49:22;;;;;;;14.65;2.90;;;18.30;99.90;;;;;;5052565;28;20056;-76
2023/08/03 07:51:48;;;;;;;13.52;2.58;;;18.30;99.90;;;;;;5053068;28;20028;-75
2023/08/03 07:54:15;;;;;;;10.90;3.05;;;18.40;99.90;;;;;;5052305;28;20028;-75
2023/08/03 07:56:41;;;;;;;11.80;2.70;;;18.40;99.90;;;;;;5044415;28;20021;-75
2023/08/03 07:59:06;;;;;;;11.32;3.15;;;18.60;99.90;;;;;;5052202;28;20081;-75
2023/08/03 08:01:32;;;;;;;11.23;2.78;;;18.70;99.90;;;;;;5052028;28;20098;-75
2023/08/03 08:03:58;;;;;;;10.30;2.80;;;18.80;99.90;;;;;;5052194;28;20171;-75
2023/08/03 08:06:24;;;;;;;10.20;2.80;;;18.90;99.90;;;;;;5042812;28;20437;-75
2023/08/03 08:08:51;;;;;;;12.75;2.65;;;19.00;99.90;;;;;;5052249;28;20170;-76
2023/08/03 08:11:18;;;;;;;7.35;2.80;;;19.00;99.90;;;;;;5051725;28;20021;-76
2023/08/03 08:13:44;;;;;;;13.93;2.97;;;19.00;99.90;;;;;;5052211;28;20049;-75
2023/08/03 08:16:12;;;;;;;15.07;2.83;;;19.00;99.90;;;;;;5051100;28;20021;-75
2023/08/03 08:18:38;;;;;;;10.60;3.10;;;19.10;99.90;;;;;;5051799;28;20055;-75
2023/08/03 08:21:06;;;;;;;9.60;2.25;;;19.10;99.90;;;;;;5051954;28;20048;-75
2023/08/03 08:23:32;;;;;;;7.93;2.85;;;19.00;99.90;;;;;;5039051;28;20357;-75
2023/08/03 08:25:58;;;;;;;11.60;2.80;;;19.10;99.90;;;;;;5051901;28;20016;-75
2023/08/03 08:28:25;;;;;;;11.98;2.47;;;19.30;99.90;;;;;;5051816;28;20040;-75
2023/08/03 08:30:51;;;;;;;15.07;2.90;;;19.40;99.90;;;;;;5046278;28;20479;-75
2023/08/03 08:33:18;;;;;;;13.05;2.95;;;19.60;99.90;;;;;;5047039;28;20048;-75
2023/08/03 08:35:45;;;;;;;14.57;2.63;;;19.70;99.90;;;;;;5051908;28;20024;-76
2023/08/03 08:38:12;;;;;;;14.05;3.38;;;19.70;99.90;;;;;;5051626;28;20934;-76
2023/08/03 08:40:39;;;;;;;14.48;3.53;;;19.70;99.90;;;;;;5043056;28;20021;-76
2023/08/03 08:43:05;;;;;;;15.27;3.53;;;19.60;99.90;;;;;;5047327;28;20439;-76
2023/08/03 08:45:31;;;;;;;15.30;3.20;;;19.60;99.90;;;;;;5051524;28;20031;-76
2023/08/03 08:47:57;;;;;;;13.05;3.28;;;19.40;99.90;;;;;;5051099;28;20017;-76
2023/08/03 08:50:23;;;;;;;18.90;3.83;;;19.30;99.90;;;;;;5051389;28;20025;-76
2023/08/03 08:52:50;;;;;;;21.20;3.90;;;19.20;99.90;;;;;;5047433;28;20511;-76
2023/08/03 08:55:21;;;;;;;18.45;4.18;;;19.10;99.90;;;;;;5046194;28;20480;-76
2023/08/03 08:57:47;;;;;;;20.90;4.00;;;19.00;99.90;;;;;;5042991;28;20495;-76
2023/08/03 09:00:14;;;;;;;19.92;3.63;;;18.90;99.90;;;;;;5044820;28;20048;-76
2023/08/03 09:02:40;;;;;;;18.52;4.00;;;19.00;99.90;;;;;;5051145;28;20039;-76
2023/08/03 09:05:17;;;;;;;22.30;4.25;;;19.00;99.90;;;;;;5051103;28;20443;-76
2023/08/03 09:07:43;;;;;;;26.00;4.93;;;19.10;99.90;;;;;;5051129;28;20021;-76
2023/08/03 09:10:10;;;;;;;25.38;4.82;;;19.20;99.90;;;;;;5048306;28;20013;-76
2023/08/03 09:12:39;;;;;;;18.40;4.03;;;19.30;99.90;;;;;;5051144;28;20104;-76
2023/08/03 09:15:05;;;;;;;16.20;3.72;;;19.40;99.90;;;;;;5048823;28;20055;-75
2023/08/03 09:17:32;;;;;;;18.40;3.80;;;19.40;99.90;;;;;;5050756;28;20013;-75
2023/08/03 09:19:58;;;;;;;20.80;4.00;;;19.40;99.90;;;;;;5050639;28;20100;-76
2023/08/03 09:22:25;;;;;;;15.02;3.10;;;19.50;99.90;;;;;;5050872;28;20104;-76
2023/08/03 09:25:17;;;;;;;22.38;4.13;;;19.60;99.90;;;;;;5048275;28;20029;-76
2023/08/03 09:27:50;;;;;;;15.75;3.42;;;19.70;99.90;;;;;;5040599;28;20044;-76
2023/08/03 09:30:16;;;;;;;14.35;2.78;;;19.60;99.90;;;;;;5038039;28;20025;-76
2023/08/03 09:32:43;;;;;;;17.63;3.30;;;19.60;99.90;;;;;;5042588;28;20563;-76
2023/08/03 09:35:22;;;;;;;11.27;2.30;;;19.60;99.90;;;;;;5050463;28;20017;-76
2023/08/03 09:37:50;;;;;;;8.50;1.75;;;19.60;99.90;;;;;;5044388;28;20025;-76
2023/08/03 09:40:19;;;;;;;8.98;1.80;;;19.50;99.90;;;;;;5050478;28;20082;-76
2023/08/03 09:42:46;;;;;;;11.43;1.92;;;19.40;99.90;;;;;;5049602;28;20052;-76
2023/08/03 09:45:12;;;;;;;9.00;1.80;;;19.40;99.90;;;;;;5042564;28;20017;-75
2023/08/03 09:47:39;;;;;;;7.50;1.70;;;19.30;99.90;;;;;;5050434;28;20355;-76
2023/08/03 09:50:06;;;;;;;10.80;2.40;;;19.20;99.90;;;;;;5048609;28;20021;-76
2023/08/03 09:52:35;;;;;;;14.23;2.45;;;19.10;99.90;;;;;;5039716;28;20035;-76
2023/08/03 09:55:18;;;;;;;13.40;1.95;;;19.20;99.90;;;;;;5042208;28;20029;-75
2023/08/03 09:57:58;;;;;;;7.47;1.80;;;19.10;99.90;;;;;;5044570;28;20071;-75
2023/08/03 10:00:24;;;;;;;7.50;1.80;;;19.10;99.90;;;;;;5047223;28;20043;-75
2023/08/03 10:02:57;;;;;;;9.20;2.03;;;19.00;99.90;;;;;;5050198;28;20029;-75
2023/08/03 10:05:26;;;;;;;11.57;2.30;;;19.00;99.90;;;;;;5050002;28;20035;-75
2023/08/03 10:08:06;;;;;;;17.08;2.70;;;18.90;99.90;;;;;;5050291;28;20028;-75
2023/08/03 10:10:36;;;;;;;11.35;3.00;;;18.80;99.90;;;;;;5051292;28;20021;-75
2023/08/03 10:13:06;;;;;;;11.45;2.67;;;18.90;99.90;;;;;;5065907;28;20024;-75
2023/08/03 10:15:32;;;;;;;10.38;2.65;;;18.90;99.90;;;;;;5065369;28;20021;-76
2023/08/03 10:17:58;;;;;;;13.02;2.40;;;18.90;99.90;;;;;;5066278;28;20025;-75
2023/08/03 10:20:25;;;;;;;10.05;2.33;;;18.80;99.90;;;;;;5064685;28;20021;-75
2023/08/03 10:23:16;;;;;;;10.40;2.33;;;18.70;99.90;;;;;;5051577;28;20472;-75
2023/08/03 10:25:54;;;;;;;13.50;2.55;;;18.60;99.90;;;;;;5045207;28;20029;-75
2023/08/03 10:28:40;;;;;;;9.73;2.17;;;18.40;99.90;;;;;;5050067;28;20031;-75
2023/08/03 10:31:19;;;;;;;8.43;1.80;;;18.20;99.90;;;;;;5041447;28;20131;-75
2023/08/03 10:33:50;;;;;;;8.20;2.03;;;18.00;99.90;;;;;;5044222;28;20025;-75
2023/08/03 10:36:30;;;;;;;12.75;2.70;;;17.90;99.90;;;;;;5044391;28;20054;-75
2023/08/03 10:39:04;;;;;;;9.15;2.28;;;17.80;99.90;;;;;;5046398;28;20248;-75
2023/08/03 10:41:36;;;;;;;10.47;2.57;;;17.80;99.90;;;;;;5054370;28;20109;-75
2023/08/03 10:44:13;;;;;;;13.52;2.80;;;17.70;99.90;;;;;;5050610;28;20291;-75
2023/08/03 10:46:50;;;;;;;7.75;2.38;;;17.60;99.90;;;;;;5050628;28;20033;-76
2023/08/03 10:49:22;;;;;;;12.43;2.30;;;17.50;99.90;;;;;;5054463;28;20569;-75
2023/08/03 10:51:53;;;;;;;10.88;3.08;;;17.50;99.90;;;;;;5044635;28;20509;-75
2023/08/03 10:54:29;;;;;;;19.65;3.58;;;17.50;99.90;;;;;;5041568;28;20100;-75
2023/08/03 10:57:04;;;;;;;16.65;3.65;;;17.40;99.90;;;;;;5054524;28;20036;-75
2023/08/03 10:59:41;;;;;;;20.88;4.07;;;17.40;99.90;;;;;;5053490;28;20041;-75
2023/08/03 11:02:22;;;;;;;23.55;4.40;;;17.40;99.90;;;;;;5053923;28;20021;-75
2023/08/03 11:04:52;;;;;;;21.73;4.43;;;17.50;99.90;;;;;;5054099;28;20038;-75
2023/08/03 11:07:21;;;;;;;25.75;4.70;;;17.60;99.90;;;;;;5054198;28;20029;-75
2023/08/03 11:09:48;;;;;;;23.83;5.03;;;17.60;99.90;;;;;;5053831;28;20498;-75
2023/08/03 11:12:16;;;;;;;26.70;4.70;;;17.60;99.90;;;;;;5054374;28;20017;-75
2023/08/03 11:14:44;;;;;;;32.17;5.70;;;17.60;99.90;;;;;;5054003;28;20017;-75
2023/08/03 11:17:12;;;;;;;23.92;4.45;;;17.60;99.90;;;;;;5053771;28;20029;-76
2023/08/03 11:19:38;;;;;;;26.38;5.00;;;17.60;99.90;;;;;;5053521;28;20021;-75
2023/08/03 11:22:05;;;;;;;28.80;5.25;;;17.60;99.90;;;;;;5053746;28;20086;-75
2023/08/03 11:24:32;;;;;;;25.83;5.00;;;17.60;99.90;;;;;;5053622;28;20481;-75
2023/08/03 11:26:58;;;;;;;25.73;5.65;;;17.60;99.90;;;;;;5043337;28;20035;-75
2023/08/03 11:29:25;;;;;;;29.23;5.30;;;17.60;99.90;;;;;;5053721;28;20048;-76
2023/08/03 11:31:50;;;;;;;26.60;4.68;;;17.70;99.90;;;;;;5053592;28;20553;-75
2023/08/03 11:34:16;;;;;;;23.67;4.88;;;17.80;99.90;;;;;;5053633;28;20108;-75
2023/08/03 11:36:50;;;;;;;26.45;4.82;;;17.80;99.90;;;;;;5053617;28;20028;-76
2023/08/03 11:39:15;;;;;;;32.13;5.72;;;17.90;99.90;;;;;;5047574;28;20215;-75
2023/08/03 11:41:42;;;;;;;18.40;4.45;;;18.00;99.90;;;;;;5052771;28;20100;-75
2023/08/03 11:44:08;;;;;;;18.63;4.68;;;18.10;99.90;;;;;;5052905;28;20025;-75
2023/08/03 11:46:34;;;;;;;25.15;4.80;;;18.10;99.90;;;;;;5052857;28;20151;-75
2023/08/03 11:49:02;;;;;;;25.27;4.68;;;18.10;99.90;;;;;;5041770;28;20313;-75
2023/08/03 11:51:38;;;;;;;22.83;4.57;;;18.20;99.90;;;;;;5045664;28;20028;-75
2023/08/03 11:54:10;;;;;;;24.33;4.35;;;18.30;99.90;;;;;;5051936;28;20467;-75
2023/08/03 11:56:39;;;;;;;25.23;4.70;;;18.40;99.90;;;;;;5045782;28;20026;-76
2023/08/03 11:59:08;;;;;;;24.80;4.55;;;18.50;99.90;;;;;;5052526;28;20049;-75
2023/08/03 12:01:48;;;;;;;21.08;4.07;;;18.50;99.90;;;;;;5045047;28;20122;-75
2023/08/03 12:04:15;;;;;;;22.15;4.95;;;18.50;99.90;;;;;;5053306;28;20033;-75
2023/08/03 12:06:50;;;;;;;27.45;4.28;;;18.40;99.90;;;;;;5049267;28;20048;-75
2023/08/03 12:09:25;;;;;;;21.15;4.40;;;18.50;99.90;;;;;;5052758;28;20061;-76
2023/08/03 12:11:51;;;;;;;22.63;3.55;;;18.40;99.90;;;;;;5050916;28;20096;-75
2023/08/03 12:14:17;;;;;;;18.02;3.72;;;18.40;99.90;;;;;;5052598;28;20115;-75
2023/08/03 12:16:43;;;;;;;25.15;4.18;;;18.40;99.90;;;;;;5054962;28;20017;-78
2023/08/03 12:19:09;;;;;;;19.00;3.45;;;18.40;99.90;;;;;;5052379;28;20009;-75
2023/08/03 12:21:38;;;;;;;17.25;3.33;;;18.40;99.90;;;;;;5052516;28;20028;-76
2023/08/03 12:24:05;;;;;;;22.35;3.90;;;18.40;99.90;;;;;;5040385;28;20380;-75
2023/08/03 12:26:31;;;;;;;26.42;3.67;;;18.50;99.90;;;;;;5051372;28;20025;-75
2023/08/03 12:28:57;;;;;;;15.98;3.25;;;18.60;99.90;;;;;;5052101;28;20013;-75
2023/08/03 12:31:24;;;;;;;20.30;3.60;;;18.60;99.90;;;;;;5034298;28;20535;-75
2023/08/03 12:33:50;;;;;;;17.50;3.10;;;18.70;99.90;;;;;;5052523;28;20078;-74
2023/08/03 12:36:17;;;;;;;17.73;3.80;;;18.60;99.90;;;;;;5051978;28;20124;-75
2023/08/03 12:38:43;;;;;;;17.83;3.40;;;18.60;99.90;;;;;;5050828;28;20021;-75